Time;durP1;ratioP1;P1;durP2;ratioP2;P2;SDS_P1;SDS_P2;PMS_P1;PMS_P2;Temp;Humidity;BMP_temperature;BMP_pressure;BME280_temperature;BME280_humidity;BME280_pressure;Samples;Min_cycle;Max_cycle;Signal;HPM_P1;HPM_P2
2023/12/27 00:00:36;;;;;;;17.48;2.35;;;;;;;5.37;96.24;102082.69;10539909;28;20058;-58
2023/12/27 00:05:58;;;;;;;15.23;2.53;;;;;;;5.29;96.17;102085.19;10550114;27;20057;-59
2023/12/27 00:11:20;;;;;;;18.02;2.63;;;;;;;5.30;97.36;102096.28;10542275;28;20051;-59
2023/12/27 00:16:42;;;;;;;11.68;1.90;;;;;;;5.24;96.88;102091.94;10543590;28;20138;-58
2023/12/27 00:22:03;;;;;;;13.50;1.92;;;;;;;5.22;96.94;102090.22;10543060;28;20059;-58
2023/12/27 00:27:25;;;;;;;10.77;1.95;;;;;;;5.18;97.51;102091.88;10550256;28;20052;-58
2023/12/27 00:32:47;;;;;;;13.65;1.80;;;;;;;5.13;97.69;102084.97;10560986;28;20062;-58
2023/12/27 00:38:09;;;;;;;9.38;1.83;;;;;;;5.13;98.32;102102.94;10549065;28;20118;-58
2023/12/27 00:43:31;;;;;;;16.95;2.42;;;;;;;5.07;96.88;102117.38;10544977;28;20376;-58
2023/12/27 00:48:52;;;;;;;16.63;2.15;;;;;;;5.06;98.59;102125.94;10549888;28;20050;-58
2023/12/27 00:54:14;;;;;;;18.38;2.40;;;;;;;5.05;98.14;102121.63;10552827;28;20116;-58
2023/12/27 00:59:36;;;;;;;9.15;1.85;;;;;;;5.01;97.39;102130.16;10545431;28;20043;-60
2023/12/27 01:04:57;;;;;;;16.23;2.58;;;;;;;4.96;97.48;102133.50;10554298;27;20146;-58
2023/12/27 01:10:19;;;;;;;11.07;2.30;;;;;;;4.96;97.58;102131.75;10544269;28;20096;-60
2023/12/27 01:15:41;;;;;;;15.85;2.17;;;;;;;5.00;97.53;102120.72;10545341;28;20063;-60
2023/12/27 01:21:02;;;;;;;9.68;1.80;;;;;;;4.99;97.34;102124.13;10530823;27;20039;-58
2023/12/27 01:26:24;;;;;;;13.82;2.10;;;;;;;4.93;97.77;102129.16;10548842;27;20079;-59
2023/12/27 01:31:46;;;;;;;10.18;1.80;;;;;;;4.88;98.16;102130.81;10546283;28;20047;-60
2023/12/27 01:37:08;;;;;;;10.85;1.90;;;;;;;4.83;99.26;102141.84;10554793;27;20048;-58
2023/12/27 01:42:30;;;;;;;21.20;2.20;;;;;;;4.85;98.24;102143.56;10551575;28;20040;-60
2023/12/27 01:47:52;;;;;;;13.00;2.03;;;;;;;4.80;98.04;102150.34;10545919;28;20082;-58
2023/12/27 01:53:16;;;;;;;17.20;2.13;;;;;;;4.79;98.45;102155.44;10543148;28;20135;-58
2023/12/27 01:58:37;;;;;;;6.07;1.75;;;;;;;4.74;97.79;102160.50;10555656;28;20419;-60
2023/12/27 02:03:59;;;;;;;12.05;2.00;;;;;;;4.69;97.95;102164.69;10539539;28;20065;-58
2023/12/27 02:09:24;;;;;;;19.23;2.10;;;;;;;4.58;98.16;102163.66;10548285;28;20043;-58
2023/12/27 02:14:45;;;;;;;12.25;2.17;;;;;;;4.53;99.03;102170.44;10543698;28;20054;-59
2023/12/27 02:20:08;;;;;;;14.10;1.88;;;;;;;4.53;98.73;102156.75;10546254;28;20052;-59
2023/12/27 02:25:29;;;;;;;12.95;2.17;;;;;;;4.59;99.23;102155.16;10550856;28;20054;-59
2023/12/27 02:30:54;;;;;;;10.80;2.08;;;;;;;4.63;99.99;102151.78;10552579;27;20050;-58
2023/12/27 02:36:16;;;;;;;10.43;1.92;;;;;;;4.64;99.64;102157.78;10547613;27;20135;-60
2023/12/27 02:41:39;;;;;;;11.43;2.00;;;;;;;4.59;98.53;102159.41;10553200;28;20035;-59
2023/12/27 02:47:01;;;;;;;12.85;1.88;;;;;;;4.54;98.60;102156.75;10540794;27;20055;-60
2023/12/27 02:52:23;;;;;;;12.18;2.00;;;;;;;4.55;99.24;102157.63;10543030;27;20385;-59
2023/12/27 02:57:45;;;;;;;12.32;2.10;;;;;;;4.57;99.61;102149.16;10545354;28;20142;-58
2023/12/27 03:03:06;;;;;;;11.35;2.03;;;;;;;4.55;99.02;102142.25;10547637;27;20071;-59
2023/12/27 03:08:28;;;;;;;19.00;2.15;;;;;;;4.50;98.74;102139.66;10542020;28;20134;-59
2023/12/27 03:13:50;;;;;;;13.00;1.90;;;;;;;4.46;98.30;102137.00;10544007;28;20059;-59
2023/12/27 03:19:11;;;;;;;12.85;2.63;;;;;;;4.46;100.00;102132.75;10549674;27;20709;-59
2023/12/27 03:24:33;;;;;;;10.65;2.00;;;;;;;4.48;100.00;102135.31;10533134;28;20111;-59
2023/12/27 03:29:55;;;;;;;10.45;1.98;;;;;;;4.45;99.76;102123.31;10546476;28;20061;-58
2023/12/27 03:35:16;;;;;;;14.32;2.03;;;;;;;4.38;100.00;102116.38;10546284;28;20070;-59
2023/12/27 03:40:38;;;;;;;8.50;1.90;;;;;;;4.33;100.00;102107.75;10561895;27;20044;-59
2023/12/27 03:46:00;;;;;;;8.10;2.00;;;;;;;4.34;100.00;102106.91;10538566;27;20170;-59
2023/12/27 03:51:22;;;;;;;9.77;1.88;;;;;;;4.28;100.00;102105.97;10532537;28;20047;-58
2023/12/27 03:56:47;;;;;;;10.60;2.17;;;;;;;4.25;100.00;102099.06;10539621;28;20055;-59
2023/12/27 04:02:09;;;;;;;14.10;2.83;;;;;;;4.23;100.00;102110.16;10542914;28;20499;-59
2023/12/27 04:07:30;;;;;;;8.65;1.85;;;;;;;4.16;100.00;102098.94;10542569;28;20044;-58
2023/12/27 04:12:52;;;;;;;13.20;1.92;;;;;;;4.19;100.00;102105.81;10548661;27;20492;-58
2023/12/27 04:18:13;;;;;;;12.95;2.35;;;;;;;4.19;100.00;102110.94;10547121;28;20055;-59
2023/12/27 04:23:35;;;;;;;11.57;1.98;;;;;;;4.14;100.00;102108.28;10538784;28;20040;-58
2023/12/27 04:28:57;;;;;;;12.13;2.45;;;;;;;4.17;100.00;102113.47;10542563;28;20043;-59
2023/12/27 04:34:18;;;;;;;17.48;2.70;;;;;;;4.11;100.00;102113.38;10536200;28;20055;-58
2023/12/27 04:39:40;;;;;;;10.20;2.25;;;;;;;4.07;100.00;102116.69;10560960;28;20384;-60
2023/12/27 04:45:02;;;;;;;20.17;3.30;;;;;;;4.10;100.00;102124.47;10525716;27;20104;-59
2023/12/27 04:50:24;;;;;;;16.58;2.80;;;;;;;4.09;100.00;102115.91;10562199;27;20109;-59
2023/12/27 04:55:46;;;;;;;14.13;2.75;;;;;;;4.07;100.00;102116.69;10539643;28;20403;-59
2023/12/27 05:01:07;;;;;;;8.57;2.20;;;;;;;4.05;100.00;102113.25;10551282;27;20043;-59
2023/12/27 05:06:29;;;;;;;16.45;2.75;;;;;;;4.07;100.00;102101.34;10551752;28;20039;-58
2023/12/27 05:11:51;;;;;;;16.02;2.97;;;;;;;4.08;100.00;102116.72;10542001;27;20040;-59
2023/12/27 05:17:12;;;;;;;16.38;2.80;;;;;;;4.10;100.00;102109.09;10557938;28;20048;-58
2023/12/27 05:22:36;;;;;;;12.57;2.45;;;;;;;4.06;100.00;102120.13;10535012;28;20396;-58
2023/12/27 05:27:57;;;;;;;12.65;2.67;;;;;;;4.09;100.00;102125.28;10547833;28;20568;-59
2023/12/27 05:33:20;;;;;;;11.82;2.58;;;;;;;4.07;100.00;102121.81;10554955;27;20052;-59
2023/12/27 05:38:42;;;;;;;11.52;2.65;;;;;;;4.04;100.00;102117.53;10542342;28;20075;-58
2023/12/27 05:44:04;;;;;;;16.75;2.70;;;;;;;4.01;100.00;102103.81;10534858;27;20036;-58
2023/12/27 05:49:25;;;;;;;12.98;2.80;;;;;;;3.99;100.00;102108.03;10550675;27;20070;-59
2023/12/27 05:54:47;;;;;;;8.93;2.50;;;;;;;3.98;100.00;102106.31;10551887;27;20031;-60
2023/12/27 06:00:10;;;;;;;12.90;2.88;;;;;;;3.98;100.00;102108.88;10549938;28;20283;-60
2023/12/27 06:05:33;;;;;;;9.57;2.92;;;;;;;3.98;100.00;102101.19;10547889;28;20051;-59
2023/12/27 06:10:54;;;;;;;13.38;2.95;;;;;;;3.98;100.00;102101.19;10547743;27;20040;-59
2023/12/27 06:16:16;;;;;;;15.85;3.15;;;;;;;3.97;100.00;102090.06;10551115;27;20058;-58
2023/12/27 06:21:37;;;;;;;9.32;3.35;;;;;;;3.99;100.00;102082.44;10543624;28;20051;-57
2023/12/27 06:26:59;;;;;;;9.18;3.45;;;;;;;4.02;100.00;102074.81;10544767;27;20076;-57
2023/12/27 06:32:22;;;;;;;13.23;3.03;;;;;;;4.02;100.00;102069.69;10551913;27;20138;-57
2023/12/27 06:37:44;;;;;;;19.45;3.55;;;;;;;4.07;100.00;102071.47;10551648;27;20051;-57
2023/12/27 06:43:07;;;;;;;15.07;3.90;;;;;;;4.11;100.00;102072.38;10541686;27;20675;-58
2023/12/27 06:48:29;;;;;;;17.83;3.90;;;;;;;4.08;100.00;102082.59;10543556;28;20056;-60
2023/12/27 06:53:50;;;;;;;11.93;3.17;;;;;;;4.13;100.00;102075.84;10551507;27;20090;-58
2023/12/27 06:59:12;;;;;;;12.52;3.40;;;;;;;4.07;100.00;102091.09;10545547;28;20501;-58
2023/12/27 07:04:35;;;;;;;13.02;3.22;;;;;;;4.05;100.00;102095.31;10548081;28;20043;-58
2023/12/27 07:09:57;;;;;;;19.30;4.03;;;;;;;4.11;100.00;102092.88;10532447;28;20051;-59
2023/12/27 07:15:19;;;;;;;11.02;3.13;;;;;;;4.09;100.00;102099.66;10547406;28;20120;-58
2023/12/27 07:20:40;;;;;;;14.05;4.05;;;;;;;4.14;100.00;102098.03;10549527;28;20464;-58
2023/12/27 07:26:04;;;;;;;19.52;4.18;;;;;;;4.19;100.00;102086.19;10541761;28;20055;-60
2023/12/27 07:31:25;;;;;;;15.70;3.97;;;;;;;4.24;100.00;102066.63;10546114;28;20050;-58
2023/12/27 07:36:48;;;;;;;14.52;3.40;;;;;;;4.26;100.00;102077.75;10541801;27;20101;-57
2023/12/27 07:42:09;;;;;;;19.63;4.32;;;;;;;4.24;100.00;102083.69;10529672;28;20052;-58
2023/12/27 07:47:31;;;;;;;23.02;3.83;;;;;;;4.28;100.00;102075.22;10538543;28;20097;-60
2023/12/27 07:52:53;;;;;;;13.30;3.80;;;;;;;4.28;100.00;102070.09;10536933;27;20048;-61
2023/12/27 07:58:14;;;;;;;12.73;3.83;;;;;;;4.30;100.00;102069.28;10543052;27;20396;-60
2023/12/27 08:03:37;;;;;;;15.85;3.83;;;;;;;4.32;100.00;102067.63;10540559;28;20040;-59
2023/12/27 08:08:59;;;;;;;11.02;3.60;;;;;;;4.35;100.00;102047.16;10544531;27;20146;-58
2023/12/27 08:14:21;;;;;;;10.77;3.40;;;;;;;4.36;100.00;102061.69;10533799;28;20087;-58
2023/12/27 08:19:42;;;;;;;12.20;3.65;;;;;;;4.36;100.00;102051.44;10541089;28;20051;-60
2023/12/27 08:25:09;;;;;;;14.77;3.88;;;;;;;4.37;100.00;102050.63;10534932;28;23256;-58
2023/12/27 08:30:31;;;;;;;15.32;3.78;;;;;;;4.44;100.00;102052.41;10538690;28;20178;-60
2023/12/27 08:35:52;;;;;;;11.57;4.13;;;;;;;4.46;100.00;102035.38;10550809;28;20051;-58
2023/12/27 08:41:14;;;;;;;15.80;4.00;;;;;;;4.48;100.00;102033.69;10544312;28;20059;-59
2023/12/27 08:46:36;;;;;;;17.42;4.90;;;;;;;4.55;100.00;102029.50;10543211;28;20056;-59
2023/12/27 08:51:57;;;;;;;13.48;4.13;;;;;;;4.62;100.00;102029.59;10530641;28;20056;-58
2023/12/27 08:57:19;;;;;;;15.50;4.25;;;;;;;4.66;100.00;102018.56;10545537;28;20047;-60
2023/12/27 09:02:41;;;;;;;18.42;4.88;;;;;;;4.73;100.00;102010.09;10533082;28;20043;-61
2023/12/27 09:08:02;;;;;;;19.05;5.00;;;;;;;4.75;100.00;102003.28;10531059;28;20048;-61
2023/12/27 09:13:24;;;;;;;19.35;4.97;;;;;;;4.82;100.00;101999.09;10550940;28;20486;-60
2023/12/27 09:18:46;;;;;;;15.25;5.10;;;;;;;4.86;100.00;102001.72;10530303;28;20059;-60
2023/12/27 09:24:08;;;;;;;18.50;4.00;;;;;;;4.93;100.00;102003.50;10537357;27;20123;-61
2023/12/27 09:29:30;;;;;;;18.17;4.13;;;;;;;4.99;100.00;102006.16;10547421;27;20554;-60
2023/12/27 09:34:52;;;;;;;16.95;4.13;;;;;;;5.05;100.00;101995.94;10547307;27;20071;-59
2023/12/27 09:40:14;;;;;;;15.43;3.38;;;;;;;5.10;100.00;102004.59;10549253;28;20138;-58
2023/12/27 09:45:37;;;;;;;21.52;4.60;;;;;;;5.17;100.00;101999.50;10538050;28;20040;-60
2023/12/27 09:50:59;;;;;;;14.88;4.28;;;;;;;5.19;100.00;101985.84;10557348;27;20055;-59
2023/12/27 09:56:22;;;;;;;15.35;4.03;;;;;;;5.26;100.00;101997.03;10544066;28;20428;-60
2023/12/27 10:01:49;;;;;;;14.32;3.75;;;;;;;5.30;100.00;101983.38;10544583;28;20053;-59
2023/12/27 10:07:15;;;;;;;20.05;3.85;;;;;;;5.35;100.00;101977.47;10548078;27;20046;-62
2023/12/27 10:12:39;;;;;;;13.50;4.00;;;;;;;5.44;100.00;101976.72;10544811;28;20046;-59
2023/12/27 10:18:01;;;;;;;13.77;3.67;;;;;;;5.51;100.00;101965.66;10538813;28;20052;-59
2023/12/27 10:23:23;;;;;;;11.35;3.70;;;;;;;5.58;100.00;101959.72;10539150;27;20036;-59
2023/12/27 10:28:46;;;;;;;13.75;3.90;;;;;;;5.62;100.00;101954.59;10548825;28;20043;-60
2023/12/27 10:34:08;;;;;;;15.40;3.60;;;;;;;5.67;100.00;101928.97;10545139;27;20043;-60
2023/12/27 10:39:30;;;;;;;12.40;3.33;;;;;;;5.72;100.00;101911.88;10544744;28;20105;-59
2023/12/27 10:44:52;;;;;;;20.92;3.40;;;;;;;5.77;100.00;101889.66;10534350;28;20117;-61
2023/12/27 10:50:19;;;;;;;10.73;3.13;;;;;;;5.79;100.00;101867.44;10544241;28;21002;-59
2023/12/27 10:55:42;;;;;;;13.52;3.03;;;;;;;5.79;100.00;101849.44;10528312;27;20064;-61
2023/12/27 11:01:05;;;;;;;10.55;2.55;;;;;;;5.81;100.00;101838.34;10540562;27;20135;-60
2023/12/27 11:06:29;;;;;;;13.30;2.70;;;;;;;5.83;100.00;101823.84;10555054;27;20063;-59
2023/12/27 11:11:55;;;;;;;20.42;3.20;;;;;;;5.86;100.00;101805.88;10523158;28;20916;-59
2023/12/27 11:17:19;;;;;;;9.43;2.67;;;;;;;5.90;100.00;101783.63;10536663;27;20040;-59
2023/12/27 11:22:43;;;;;;;15.65;3.03;;;;;;;5.96;100.00;101768.25;10547535;27;20044;-58
2023/12/27 11:28:05;;;;;;;12.80;2.67;;;;;;;6.02;100.00;101746.00;10541406;28;20052;-59
2023/12/27 11:33:08;;;;;;;15.13;2.90;;;;;;;6.09;100.00;101728.91;10566368;27;20122;-59
2023/12/27 11:38:31;;;;;;;9.65;2.80;;;;;;;6.14;100.00;101716.94;10536437;27;20054;-59
2023/12/27 11:43:57;;;;;;;11.40;2.75;;;;;;;6.16;100.00;101697.25;10516661;27;20047;-58
2023/12/27 11:49:20;;;;;;;9.57;2.80;;;;;;;6.22;100.00;101679.28;10536952;27;20051;-60
2023/12/27 11:54:42;;;;;;;12.90;3.08;;;;;;;6.26;100.00;101678.44;10549620;27;20058;-59
2023/12/27 12:00:05;;;;;;;22.15;3.70;;;;;;;6.33;100.00;101664.72;10540364;27;20052;-59
2023/12/27 12:06:00;;;;;;;15.98;4.05;;;;;;;6.40;100.00;101645.00;10550869;27;21769;-59
2023/12/27 12:11:24;;;;;;;14.20;3.92;;;;;;;6.45;100.00;101641.59;10539128;27;20063;-58
2023/12/27 12:16:46;;;;;;;17.15;3.65;;;;;;;6.51;100.00;101633.00;10560555;27;20618;-59
2023/12/27 12:22:12;;;;;;;13.27;3.55;;;;;;;6.50;100.00;101615.88;10542246;27;20487;-59
2023/12/27 12:27:34;;;;;;;14.65;4.18;;;;;;;6.52;100.00;101606.47;10535821;28;20063;-59
2023/12/27 12:32:55;;;;;;;17.13;3.80;;;;;;;6.53;100.00;101597.88;10547621;28;20039;-60
2023/12/27 12:38:20;;;;;;;11.90;3.88;;;;;;;6.54;100.00;101586.72;10529688;28;20046;-59
2023/12/27 12:43:43;;;;;;;13.43;4.13;;;;;;;6.56;100.00;101569.59;10533599;28;20047;-59
2023/12/27 12:49:05;;;;;;;15.43;3.95;;;;;;;6.56;100.00;101569.59;10536269;28;20147;-59
2023/12/27 12:54:27;;;;;;;13.93;4.15;;;;;;;6.55;100.00;101566.19;10542568;27;20044;-59
2023/12/27 12:59:49;;;;;;;19.10;4.72;;;;;;;6.60;100.00;101540.44;10543770;27;20458;-59
2023/12/27 13:05:14;;;;;;;13.20;4.93;;;;;;;6.60;100.00;101519.88;10557902;27;20046;-60
2023/12/27 13:10:36;;;;;;;16.92;4.30;;;;;;;6.59;100.00;101502.75;10555497;27;20069;-60
2023/12/27 13:15:58;;;;;;;17.42;4.38;;;;;;;6.61;100.00;101499.31;10544814;27;20147;-60
2023/12/27 13:21:21;;;;;;;14.73;4.47;;;;;;;6.59;100.00;101484.75;10549625;27;20051;-59
2023/12/27 13:26:43;;;;;;;19.10;4.88;;;;;;;6.51;100.00;101471.94;10546178;27;20112;-59
2023/12/27 13:32:05;;;;;;;13.20;4.68;;;;;;;6.47;100.00;101480.50;10533696;27;20051;-59
2023/12/27 13:37:27;;;;;;;16.58;5.32;;;;;;;6.42;100.00;101461.69;10545913;27;20052;-58
2023/12/27 13:42:49;;;;;;;15.90;4.95;;;;;;;6.37;100.00;101448.00;10548191;27;20047;-59
2023/12/27 13:48:14;;;;;;;16.63;5.22;;;;;;;6.36;100.00;101443.69;10561689;27;20059;-60
2023/12/27 13:53:39;;;;;;;13.35;5.03;;;;;;;6.36;100.00;101435.13;10546082;27;20063;-59
2023/12/27 13:59:00;;;;;;;20.50;5.70;;;;;;;6.35;100.00;101434.28;10543619;27;20058;-59
2023/12/27 14:04:22;;;;;;;17.45;5.72;;;;;;;6.34;100.00;101406.88;10544866;27;20582;-59
2023/12/27 14:09:44;;;;;;;18.48;6.00;;;;;;;6.34;100.00;101373.47;10539233;27;20445;-61
2023/12/27 14:15:06;;;;;;;12.40;4.95;;;;;;;6.35;100.00;101366.59;10525428;27;20627;-59
2023/12/27 14:20:29;;;;;;;11.07;5.43;;;;;;;6.37;100.00;101355.47;10542646;27;20074;-61
2023/12/27 14:25:55;;;;;;;15.00;5.13;;;;;;;6.38;100.00;101344.31;10554883;27;20052;-61
2023/12/27 14:31:19;;;;;;;13.38;5.97;;;;;;;6.39;100.00;101317.75;10526081;27;20490;-59
2023/12/27 14:36:41;;;;;;;12.60;5.07;;;;;;;6.42;100.00;101307.47;10547663;27;20052;-58
2023/12/27 14:42:04;;;;;;;8.15;4.68;;;;;;;6.45;100.00;101297.16;10540120;27;20576;-58
2023/12/27 14:47:25;;;;;;;12.60;5.10;;;;;;;6.48;100.00;101302.31;10530221;27;20499;-58
2023/12/27 14:52:47;;;;;;;9.75;4.57;;;;;;;6.50;100.00;101297.97;10546401;27;20085;-60
2023/12/27 14:58:09;;;;;;;8.93;4.53;;;;;;;6.53;100.00;101272.28;10543268;27;20050;-58
2023/12/27 15:03:34;;;;;;;8.00;5.25;;;;;;;6.57;100.00;101239.69;10544148;27;20036;-58
2023/12/27 15:08:57;;;;;;;10.57;5.72;;;;;;;6.59;100.00;101238.78;10539260;27;20055;-59
2023/12/27 15:14:19;;;;;;;12.45;6.00;;;;;;;6.64;100.00;101252.50;10543124;27;20051;-59
2023/12/27 15:19:43;;;;;;;12.50;6.20;;;;;;;6.70;100.00;101179.59;10546596;27;20354;-61
2023/12/27 15:25:05;;;;;;;9.75;6.82;;;;;;;6.74;100.00;101182.09;10540114;27;20120;-59
2023/12/27 15:30:28;;;;;;;9.73;6.55;;;;;;;6.76;100.00;101190.66;10553494;27;20353;-59
2023/12/27 15:35:50;;;;;;;9.18;6.60;;;;;;;6.81;100.00;101213.78;10528106;27;20522;-58
2023/12/27 15:41:17;;;;;;;12.45;7.22;;;;;;;6.85;100.00;101203.44;10552472;27;20399;-60
2023/12/27 15:46:39;;;;;;;11.68;7.25;;;;;;;6.92;100.00;101175.97;10555252;27;20046;-60
2023/12/27 15:52:00;;;;;;;13.77;7.40;;;;;;;6.97;100.00;101163.91;10534012;27;20044;-59
2023/12/27 15:57:22;;;;;;;11.77;7.72;;;;;;;7.07;100.00;101144.91;10547092;27;20556;-59
2023/12/27 16:02:44;;;;;;;15.25;9.00;;;;;;;7.16;100.00;101143.97;10554146;27;20043;-58
2023/12/27 16:08:06;;;;;;;16.55;8.50;;;;;;;7.24;100.00;101122.44;10516312;28;20051;-61
2023/12/27 16:13:28;;;;;;;16.23;9.20;;;;;;;7.31;100.00;101103.47;10553904;27;20070;-61
2023/12/27 16:18:50;;;;;;;15.07;9.15;;;;;;;7.37;100.00;101111.13;10544786;28;20523;-60
2023/12/27 16:24:13;;;;;;;18.15;9.40;;;;;;;7.45;100.00;101121.31;10546304;27;20133;-59
2023/12/27 16:29:39;;;;;;;12.27;9.00;;;;;;;7.47;100.00;101099.81;10546190;28;20139;-61
2023/12/27 16:35:01;;;;;;;21.35;9.40;;;;;;;7.51;100.00;101065.44;10562808;28;20132;-60
2023/12/27 16:40:23;;;;;;;14.88;9.10;;;;;;;7.54;100.00;101041.38;10527465;28;20048;-61
2023/12/27 16:45:44;;;;;;;16.05;8.80;;;;;;;7.57;100.00;101049.06;10532510;28;20407;-59
2023/12/27 16:51:06;;;;;;;19.30;8.70;;;;;;;7.63;100.00;101036.09;10527414;28;20052;-59
2023/12/27 16:56:28;;;;;;;14.68;8.63;;;;;;;7.66;100.00;101028.31;10545084;28;20054;-60
2023/12/27 17:01:50;;;;;;;13.73;8.07;;;;;;;7.74;100.00;101011.91;10550429;28;20054;-59
2023/12/27 17:07:11;;;;;;;15.93;8.02;;;;;;;7.74;100.00;101011.03;10547699;28;20055;-59
2023/12/27 17:12:33;;;;;;;18.00;8.07;;;;;;;7.73;100.00;100996.44;10537971;28;20479;-60
2023/12/27 17:17:55;;;;;;;11.73;7.57;;;;;;;7.75;100.00;100992.13;10554505;28;20150;-59
2023/12/27 17:23:18;;;;;;;13.55;7.97;;;;;;;7.75;100.00;100981.81;10546078;28;20040;-59
2023/12/27 17:28:39;;;;;;;18.50;8.02;;;;;;;7.75;100.00;100974.09;10538453;28;20047;-58
2023/12/27 17:34:01;;;;;;;13.05;7.72;;;;;;;7.76;100.00;100983.53;10547626;28;20138;-58
2023/12/27 17:39:23;;;;;;;12.77;7.90;;;;;;;7.76;100.00;100947.47;10542149;28;20439;-59
2023/12/27 17:44:45;;;;;;;14.38;7.70;;;;;;;7.74;100.00;100932.06;10550663;27;20164;-59
2023/12/27 17:50:07;;;;;;;13.27;7.15;;;;;;;7.74;100.00;100929.50;10546556;27;20058;-61
2023/12/27 17:55:29;;;;;;;11.50;7.32;;;;;;;7.76;100.00;100927.75;10562688;27;20044;-59
2023/12/27 18:00:51;;;;;;;15.45;7.03;;;;;;;7.77;100.00;100902.81;10557051;27;20146;-59
2023/12/27 18:06:12;;;;;;;13.02;7.10;;;;;;;7.75;100.00;100889.97;10555855;27;20044;-60
2023/12/27 18:11:34;;;;;;;11.57;7.35;;;;;;;7.75;100.00;100871.94;10558495;27;20381;-61
2023/12/27 18:16:56;;;;;;;9.13;6.65;;;;;;;7.75;100.00;100859.06;10553676;27;20053;-60
2023/12/27 18:22:18;;;;;;;10.57;6.68;;;;;;;7.77;100.00;100846.16;10547316;27;20079;-59
2023/12/27 18:27:39;;;;;;;9.85;6.30;;;;;;;7.79;100.00;100844.41;10554937;27;20059;-59
2023/12/27 18:33:03;;;;;;;9.63;6.07;;;;;;;7.79;100.00;100829.81;10556575;27;20049;-59
2023/12/27 18:38:25;;;;;;;11.25;6.13;;;;;;;7.81;100.00;100828.03;10537278;27;20499;-58
2023/12/27 18:43:47;;;;;;;11.63;5.97;;;;;;;7.81;100.00;100822.03;10543776;27;20120;-58
2023/12/27 18:49:09;;;;;;;7.90;5.53;;;;;;;7.84;100.00;100804.78;10551763;27;20442;-59
2023/12/27 18:54:31;;;;;;;7.65;5.63;;;;;;;7.85;100.00;100813.38;10537948;27;20046;-59
2023/12/27 18:59:54;;;;;;;7.32;5.10;;;;;;;7.82;100.00;100808.31;10553503;27;20063;-59
2023/12/27 19:05:15;;;;;;;8.77;6.20;;;;;;;7.83;100.00;100797.97;10545120;27;20365;-58
2023/12/27 19:10:37;;;;;;;8.05;5.57;;;;;;;7.84;100.00;100811.66;10560286;27;20100;-59
2023/12/27 19:15:59;;;;;;;7.93;5.10;;;;;;;7.85;100.00;100785.03;10555080;27;20059;-59
2023/12/27 19:21:21;;;;;;;7.13;5.07;;;;;;;7.85;100.00;100772.16;10546786;27;20052;-59
2023/12/27 19:26:43;;;;;;;7.82;5.20;;;;;;;7.84;100.00;100755.84;10553941;27;20036;-59
2023/12/27 19:32:05;;;;;;;6.43;4.75;;;;;;;7.82;100.00;100752.47;10550299;27;20043;-59
2023/12/27 19:37:27;;;;;;;8.93;5.15;;;;;;;7.81;100.00;100737.03;10541262;27;20048;-59
2023/12/27 19:42:50;;;;;;;6.75;4.93;;;;;;;7.82;100.00;100675.19;10540776;27;20047;-59
2023/12/27 19:48:12;;;;;;;7.57;4.20;;;;;;;7.85;100.00;100658.84;10535091;27;20067;-60
2023/12/27 19:53:34;;;;;;;9.25;5.65;;;;;;;7.87;100.00;100662.22;10547828;27;20461;-58
2023/12/27 19:58:55;;;;;;;13.43;6.78;;;;;;;7.88;100.00;100635.56;10544059;28;20051;-58
2023/12/27 20:04:17;;;;;;;8.05;4.75;;;;;;;7.91;100.00;100627.78;10537034;27;20054;-58
2023/12/27 20:09:39;;;;;;;8.00;4.28;;;;;;;7.95;100.00;100645.72;10543321;27;20063;-58
2023/12/27 20:15:03;;;;;;;6.20;3.85;;;;;;;8.01;100.00;100614.66;10555005;27;20075;-59
2023/12/27 20:20:25;;;;;;;5.20;3.50;;;;;;;8.08;100.00;100605.06;10523186;28;20388;-59
2023/12/27 20:25:46;;;;;;;7.43;4.00;;;;;;;8.12;100.00;100609.25;10539932;27;20393;-59
2023/12/27 20:31:08;;;;;;;6.18;3.92;;;;;;;8.13;100.00;100587.75;10531418;28;20075;-60
2023/12/27 20:36:30;;;;;;;7.25;3.75;;;;;;;8.15;100.00;100598.84;10533193;28;20494;-59
2023/12/27 20:41:52;;;;;;;7.38;3.28;;;;;;;8.23;100.00;100609.84;10544617;28;20063;-58
2023/12/27 20:47:13;;;;;;;5.93;2.67;;;;;;;8.47;100.00;100587.81;10545544;28;20419;-59
2023/12/27 20:52:36;;;;;;;6.28;2.60;;;;;;;8.50;100.00;100578.25;10547103;28;20499;-59
2023/12/27 20:57:59;;;;;;;5.47;3.17;;;;;;;8.55;100.00;100597.03;10522483;28;20094;-59
2023/12/27 21:03:27;;;;;;;6.28;2.88;;;;;;;8.58;100.00;100596.13;10538680;28;20071;-61
2023/12/27 21:08:49;;;;;;;4.05;2.70;;;;;;;8.61;100.00;100596.03;10524320;28;20039;-59
2023/12/27 21:14:11;;;;;;;5.60;2.70;;;;;;;8.57;100.00;100584.94;10544518;28;20050;-58
2023/12/27 21:19:36;;;;;;;6.25;2.80;;;;;;;8.64;99.46;100586.50;10550078;27;20517;-60
2023/12/27 21:24:58;;;;;;;5.25;2.50;;;;;;;8.68;99.27;100598.41;10549459;27;20152;-60
2023/12/27 21:30:20;;;;;;;3.47;2.30;;;;;;;8.83;97.20;100598.00;10531792;27;20575;-60
2023/12/27 21:35:43;;;;;;;5.05;2.30;;;;;;;8.80;96.47;100607.56;10544572;27;20047;-60
2023/12/27 21:41:05;;;;;;;5.20;1.90;;;;;;;8.89;94.95;100592.69;10541570;27;20071;-59
2023/12/27 21:46:27;;;;;;;3.38;2.00;;;;;;;9.02;93.31;100598.38;10551835;27;20200;-58
2023/12/27 21:51:49;;;;;;;2.55;1.90;;;;;;;9.06;94.31;100611.13;10535789;27;20487;-59
2023/12/27 21:57:14;;;;;;;7.90;2.17;;;;;;;9.16;91.82;100616.06;10535444;27;20071;-58
2023/12/27 22:02:36;;;;;;;4.57;2.13;;;;;;;9.05;95.47;100614.59;10542357;27;20508;-59
2023/12/27 22:07:58;;;;;;;4.82;2.30;;;;;;;8.94;96.05;100606.31;10537494;27;20051;-59
2023/12/27 22:13:34;;;;;;;5.18;2.33;;;;;;;8.86;96.72;100595.34;10548359;27;20040;-59
2023/12/27 22:18:56;;;;;;;5.57;2.20;;;;;;;8.85;97.04;100616.03;10556493;27;20055;-59
2023/12/27 22:24:18;;;;;;;4.50;2.00;;;;;;;8.79;97.05;100588.66;10543041;27;20082;-59
2023/12/27 22:29:40;;;;;;;9.07;3.72;;;;;;;8.75;97.61;100599.94;10542024;27;23211;-58
2023/12/27 22:35:02;;;;;;;5.75;2.13;;;;;;;8.81;97.01;100597.19;10546872;27;20047;-58
2023/12/27 22:40:23;;;;;;;4.15;1.98;;;;;;;8.82;97.04;100608.38;10547225;27;20044;-58
2023/12/27 22:45:45;;;;;;;6.25;2.20;;;;;;;8.79;96.69;100585.25;10549712;27;20035;-57
2023/12/27 22:51:07;;;;;;;6.00;2.10;;;;;;;8.83;97.11;100610.06;10542895;27;20035;-59
2023/12/27 22:56:28;;;;;;;4.50;1.88;;;;;;;8.80;97.40;100582.63;10553690;27;20044;-58
2023/12/27 23:01:50;;;;;;;3.47;2.03;;;;;;;8.82;98.28;100600.63;10548831;27;20097;-59
2023/12/27 23:07:15;;;;;;;4.50;2.10;;;;;;;8.81;99.11;100594.63;10551774;27;20135;-58
2023/12/27 23:12:37;;;;;;;4.15;2.22;;;;;;;8.87;98.43;100589.31;10529990;27;20504;-58
2023/12/27 23:17:58;;;;;;;4.95;2.00;;;;;;;8.86;98.63;100600.50;10540928;27;20390;-58
2023/12/27 23:23:21;;;;;;;3.63;2.00;;;;;;;8.82;98.46;100606.66;10552380;27;20039;-59
2023/12/27 23:28:42;;;;;;;4.75;2.00;;;;;;;8.73;100.00;100612.06;10547243;27;20662;-60
2023/12/27 23:34:04;;;;;;;4.40;1.88;;;;;;;8.69;100.00;100615.59;10543355;27;20053;-59
2023/12/27 23:39:26;;;;;;;3.80;2.03;;;;;;;8.67;100.00;100622.53;10550605;27;20040;-59
2023/12/27 23:44:47;;;;;;;3.67;2.13;;;;;;;8.61;100.00;100609.78;10536241;27;20050;-59
2023/12/27 23:50:09;;;;;;;5.18;2.20;;;;;;;8.58;100.00;100625.34;10545387;27;20051;-60
2023/12/27 23:55:31;;;;;;;3.70;2.30;;;;;;;8.62;100.00;100623.53;10544695;27;20040;-60
